Time;durP1;ratioP1;P1;durP2;ratioP2;P2;SDS_P1;SDS_P2;PMS_P1;PMS_P2;Temp;Humidity;BMP_temperature;BMP_pressure;BME280_temperature;BME280_humidity;BME280_pressure;Samples;Min_cycle;Max_cycle;Signal;HPM_P1;HPM_P2
2022/07/05 00:01:45;;;;;;;0.00;0.00;;;17.70;99.90;;;;;;5088152;28;20198;-70
2022/07/05 00:04:13;;;;;;;0.00;0.00;;;17.70;99.90;;;;;;5087760;28;20254;-70
2022/07/05 00:07:17;;;;;;;0.00;0.00;;;17.60;99.90;;;;;;5086650;28;20233;-70
2022/07/05 00:09:28;;;;;;;0.00;0.00;;;17.50;99.90;;;;;;5084670;28;20209;-71
2022/07/05 00:11:55;;;;;;;0.00;0.00;;;17.50;99.90;;;;;;5086497;28;20196;-69
2022/07/05 00:14:23;;;;;;;0.00;0.00;;;;;;;;;;5085563;28;20218;-70
2022/07/05 00:16:50;;;;;;;0.00;0.00;;;;;;;;;;5082209;28;20302;-70
2022/07/05 00:19:19;;;;;;;0.00;0.00;;;;;;;;;;5085926;28;20214;-70
2022/07/05 00:21:46;;;;;;;0.00;0.00;;;;;;;;;;5081828;28;20205;-69
2022/07/05 00:24:13;;;;;;;0.00;0.00;;;17.30;99.90;;;;;;5082867;28;20226;-70
2022/07/05 00:26:40;;;;;;;0.00;0.00;;;17.20;99.90;;;;;;5084605;28;20197;-70
2022/07/05 00:29:07;;;;;;;0.00;0.00;;;17.20;99.90;;;;;;5085767;28;20639;-69
2022/07/05 00:31:34;;;;;;;0.00;0.00;;;17.20;99.90;;;;;;5087458;28;20190;-70
2022/07/05 00:34:01;;;;;;;0.00;0.00;;;17.20;99.90;;;;;;5085621;28;20242;-71
2022/07/05 00:36:29;;;;;;;0.00;0.00;;;17.10;99.90;;;;;;5087349;28;20206;-70
2022/07/05 00:38:57;;;;;;;0.00;0.00;;;;;;;;;;5087216;28;20241;-70
2022/07/05 00:41:24;;;;;;;0.00;0.00;;;;;;;;;;5086806;28;20213;-70
2022/07/05 00:43:56;;;;;;;0.00;0.00;;;;;;;;;;5084294;28;20766;-70
2022/07/05 00:46:23;;;;;;;0.00;0.00;;;;;;;;;;5085050;28;20226;-70
2022/07/05 00:48:51;;;;;;;0.00;0.00;;;;;;;;;;5085511;28;20218;-69
2022/07/05 00:51:19;;;;;;;0.00;0.00;;;17.10;99.90;;;;;;5084510;28;20228;-69
2022/07/05 00:53:48;;;;;;;0.00;0.00;;;17.00;99.90;;;;;;5085861;28;20214;-70
2022/07/05 00:56:15;;;;;;;0.00;0.00;;;17.00;99.90;;;;;;5082841;28;20210;-70
2022/07/05 00:58:43;;;;;;;0.00;0.00;;;;;;;;;;5086395;28;20242;-69
2022/07/05 01:01:11;;;;;;;0.00;0.00;;;;;;;;;;5085442;28;20287;-70
2022/07/05 01:03:39;;;;;;;0.00;0.00;;;;;;;;;;5082121;28;20248;-70
2022/07/05 01:06:07;;;;;;;0.00;0.00;;;;;;;;;;5084919;28;20205;-69
2022/07/05 01:08:36;;;;;;;0.00;0.00;;;17.00;99.90;;;;;;5083846;28;20208;-69
2022/07/05 01:11:04;;;;;;;0.00;0.00;;;16.90;99.90;;;;;;5085841;28;20293;-69
2022/07/05 01:13:32;;;;;;;0.00;0.00;;;16.70;99.90;;;;;;5086382;28;20222;-70
2022/07/05 01:16:00;;;;;;;0.00;0.00;;;16.70;99.90;;;;;;5086270;28;20267;-69
2022/07/05 01:18:27;;;;;;;0.00;0.00;;;16.70;99.90;;;;;;5085069;28;20217;-69
2022/07/05 01:20:54;;;;;;;0.00;0.00;;;16.70;99.90;;;;;;5083456;28;20230;-71
2022/07/05 01:23:23;;;;;;;0.00;0.00;;;16.70;99.90;;;;;;5084672;28;20233;-69
2022/07/05 01:25:52;;;;;;;0.00;0.00;;;16.70;99.90;;;;;;5084508;28;20281;-70
2022/07/05 01:28:19;;;;;;;0.00;0.00;;;16.70;99.90;;;;;;5083966;28;20693;-69
2022/07/05 01:30:47;;;;;;;0.00;0.00;;;;;;;;;;5078375;28;20259;-70
2022/07/05 01:33:14;;;;;;;0.00;0.00;;;16.70;99.90;;;;;;5083475;28;20237;-70
2022/07/05 01:35:41;;;;;;;0.00;0.00;;;16.80;99.90;;;;;;5084727;28;20194;-69
2022/07/05 01:38:09;;;;;;;0.00;0.00;;;;;;;;;;5086048;28;20659;-70
2022/07/05 01:40:38;;;;;;;0.00;0.00;;;;;;;;;;5084342;28;20214;-69
2022/07/05 01:43:06;;;;;;;0.00;0.00;;;;;;;;;;5083566;28;20278;-70
2022/07/05 01:45:39;;;;;;;0.00;0.00;;;;;;;;;;5084394;28;20201;-69
2022/07/05 01:48:08;;;;;;;0.00;0.00;;;;;;;;;;5084334;28;20236;-69
2022/07/05 01:50:37;;;;;;;0.00;0.00;;;;;;;;;;5083932;28;20674;-69
2022/07/05 01:53:05;;;;;;;0.00;0.00;;;;;;;;;;5084107;28;20218;-69
2022/07/05 01:55:32;;;;;;;0.00;0.00;;;;;;;;;;5084304;28;20288;-69
2022/07/05 01:58:02;;;;;;;0.00;0.00;;;;;;;;;;5079308;28;20200;-70
2022/07/05 02:00:29;;;;;;;0.00;0.00;;;;;;;;;;5083489;28;20314;-70
2022/07/05 02:02:57;;;;;;;0.00;0.00;;;;;;;;;;5084497;28;20208;-70
2022/07/05 02:05:24;;;;;;;0.00;0.00;;;;;;;;;;5077415;28;20194;-69
2022/07/05 02:07:52;;;;;;;0.00;0.00;;;;;;;;;;5081581;28;20198;-69
2022/07/05 02:10:19;;;;;;;0.00;0.00;;;;;;;;;;5082634;28;20197;-70
2022/07/05 02:12:46;;;;;;;0.00;0.00;;;;;;;;;;5083569;28;20217;-69
2022/07/05 02:15:15;;;;;;;0.00;0.00;;;;;;;;;;5085273;28;20202;-69
2022/07/05 02:17:43;;;;;;;0.00;0.00;;;;;;;;;;5083244;28;20194;-69
2022/07/05 02:20:11;;;;;;;0.00;0.00;;;;;;;;;;5081954;28;20237;-70
2022/07/05 02:22:39;;;;;;;0.00;0.00;;;;;;;;;;5079836;28;20293;-70
2022/07/05 02:25:07;;;;;;;0.00;0.00;;;;;;;;;;5084093;28;20198;-69
2022/07/05 02:27:34;;;;;;;0.07;0.07;;;;;;;;;;5080788;28;20221;-70
2022/07/05 02:30:02;;;;;;;0.10;0.10;;;;;;;;;;5083974;28;20247;-69
2022/07/05 02:32:38;;;;;;;0.00;0.00;;;;;;;;;;5083009;28;20198;-70
2022/07/05 02:35:07;;;;;;;0.00;0.00;;;;;;;;;;5083682;28;20293;-69
2022/07/05 02:37:35;;;;;;;0.00;0.00;;;;;;;;;;5083426;28;20198;-70
2022/07/05 02:40:05;;;;;;;0.00;0.00;;;;;;;;;;5076354;28;20214;-69
2022/07/05 02:42:35;;;;;;;0.00;0.00;;;;;;;;;;5082991;28;20190;-70
2022/07/05 02:45:03;;;;;;;0.00;0.00;;;;;;;;;;5082146;28;20218;-69
2022/07/05 02:47:31;;;;;;;0.00;0.00;;;;;;;;;;5085658;28;20255;-69
2022/07/05 02:50:01;;;;;;;0.00;0.00;;;;;;;;;;5086208;28;20198;-69
2022/07/05 02:52:29;;;;;;;0.00;0.00;;;;;;;;;;5087399;28;20224;-70
2022/07/05 02:54:56;;;;;;;0.10;0.10;;;;;;;;;;5087710;28;20229;-70
2022/07/05 02:57:24;;;;;;;0.00;0.00;;;;;;;;;;5084931;28;20312;-69
2022/07/05 02:59:51;;;;;;;0.00;0.00;;;;;;;;;;5083493;28;20206;-69
2022/07/05 03:02:18;;;;;;;0.00;0.00;;;;;;;;;;5083122;28;20796;-70
2022/07/05 03:04:46;;;;;;;0.00;0.00;;;;;;;;;;5079816;28;20214;-69
2022/07/05 03:07:15;;;;;;;0.07;0.07;;;;;;;;;;5082786;28;20202;-69
2022/07/05 03:09:43;;;;;;;0.00;0.00;;;;;;;;;;5081756;28;20697;-69
2022/07/05 03:12:12;;;;;;;0.00;0.00;;;;;;;;;;5084840;28;20202;-69
2022/07/05 03:14:40;;;;;;;0.00;0.00;;;;;;;;;;5080915;28;20286;-69
2022/07/05 03:17:08;;;;;;;0.00;0.00;;;;;;;;;;5080090;28;20209;-69
2022/07/05 03:19:35;;;;;;;0.00;0.00;;;;;;;;;;5076229;28;20213;-70
2022/07/05 03:22:03;;;;;;;0.00;0.00;;;;;;;;;;5081583;28;20234;-69
2022/07/05 03:24:32;;;;;;;0.10;0.10;;;;;;;;;;5084038;28;20209;-69
2022/07/05 03:27:00;;;;;;;0.00;0.00;;;;;;;;;;5086890;28;20198;-69
2022/07/05 03:29:27;;;;;;;0.00;0.00;;;;;;;;;;5086277;28;20278;-70
2022/07/05 03:31:55;;;;;;;0.00;0.00;;;;;;;;;;5087523;28;20202;-70
2022/07/05 03:34:25;;;;;;;0.00;0.00;;;;;;;;;;5086365;28;20228;-69
2022/07/05 03:36:54;;;;;;;0.00;0.00;;;;;;;;;;5086542;28;20202;-69
2022/07/05 03:39:21;;;;;;;0.00;0.00;;;;;;;;;;5086785;28;20206;-70
2022/07/05 03:41:50;;;;;;;0.00;0.00;;;;;;;;;;5081969;28;20193;-70
2022/07/05 03:44:21;;;;;;;0.00;0.00;;;;;;;;;;5086583;28;20312;-69
2022/07/05 03:46:49;;;;;;;0.03;0.03;;;;;;;;;;5083268;28;20259;-70
2022/07/05 03:49:17;;;;;;;0.00;0.00;;;;;;;;;;5087257;28;20194;-69
2022/07/05 03:51:45;;;;;;;0.00;0.00;;;;;;;;;;5086173;28;20208;-69
2022/07/05 03:54:13;;;;;;;0.00;0.00;;;;;;;;;;5086816;28;20328;-69
2022/07/05 03:56:40;;;;;;;0.10;0.10;;;;;;;;;;5085373;28;20194;-69
2022/07/05 03:59:13;;;;;;;0.10;0.10;;;;;;;;;;5087822;28;20198;-69
2022/07/05 04:01:40;;;;;;;0.00;0.00;;;;;;;;;;5085480;28;20218;-71
2022/07/05 04:04:08;;;;;;;0.00;0.00;;;;;;;;;;5086361;28;20221;-69
2022/07/05 04:06:35;;;;;;;0.00;0.00;;;;;;;;;;5086617;28;20247;-70
2022/07/05 04:09:04;;;;;;;0.00;0.00;;;;;;;;;;5084889;28;20204;-69
2022/07/05 04:11:31;;;;;;;0.00;0.00;;;;;;;;;;5085662;28;20202;-69
2022/07/05 04:13:59;;;;;;;0.00;0.00;;;;;;;;;;5086303;28;20304;-70
2022/07/05 04:16:28;;;;;;;0.00;0.00;;;;;;;;;;5082232;28;20198;-69
2022/07/05 04:18:55;;;;;;;0.00;0.00;;;;;;;;;;5086111;28;20232;-69
2022/07/05 04:21:24;;;;;;;0.00;0.00;;;;;;;;;;5086601;28;20299;-69
2022/07/05 04:23:52;;;;;;;0.00;0.00;;;;;;;;;;5085570;28;20781;-69
2022/07/05 04:26:21;;;;;;;0.00;0.00;;;;;;;;;;5083077;28;20195;-69
2022/07/05 04:28:49;;;;;;;0.00;0.00;;;;;;;;;;5084923;28;20193;-69
2022/07/05 04:31:22;;;;;;;0.00;0.00;;;;;;;;;;5092655;28;20222;-69
2022/07/05 04:33:52;;;;;;;0.00;0.00;;;;;;;;;;5081739;28;20237;-70
2022/07/05 04:36:24;;;;;;;0.00;0.00;;;;;;;;;;5086760;28;20189;-71
2022/07/05 04:38:55;;;;;;;0.00;0.00;;;;;;;;;;5084883;28;20232;-70
2022/07/05 04:41:23;;;;;;;0.00;0.00;;;;;;;;;;5084479;28;20237;-71
2022/07/05 04:43:51;;;;;;;0.00;0.00;;;;;;;;;;5090643;28;20215;-69
2022/07/05 04:46:18;;;;;;;0.00;0.00;;;;;;;;;;5096411;28;20266;-70
2022/07/05 04:48:47;;;;;;;0.00;0.00;;;;;;;;;;5094391;28;20312;-69
2022/07/05 04:51:17;;;;;;;0.00;0.00;;;;;;;;;;5092364;28;20194;-72
2022/07/05 04:53:45;;;;;;;0.00;0.00;;;;;;;;;;5070793;28;20211;-69
2022/07/05 04:56:13;;;;;;;0.00;0.00;;;;;;;;;;5095410;28;20204;-69
2022/07/05 04:58:40;;;;;;;0.00;0.00;;;;;;;;;;5096044;28;20193;-69
2022/07/05 05:01:07;;;;;;;0.00;0.00;;;;;;;;;;5097235;28;20307;-70
2022/07/05 05:03:35;;;;;;;0.00;0.00;;;;;;;;;;5084999;28;20229;-71
2022/07/05 05:06:02;;;;;;;0.00;0.00;;;;;;;;;;5087432;28;20216;-69
2022/07/05 05:08:31;;;;;;;0.00;0.00;;;;;;;;;;5091490;28;20276;-69
2022/07/05 05:10:59;;;;;;;0.00;0.00;;;;;;;;;;5097183;28;20248;-69
2022/07/05 05:13:26;;;;;;;0.00;0.00;;;;;;;;;;5096874;28;20213;-69
2022/07/05 05:15:53;;;;;;;0.00;0.00;;;;;;;;;;5091769;28;20213;-69
2022/07/05 05:18:25;;;;;;;0.00;0.00;;;;;;;;;;5095237;28;20222;-69
2022/07/05 05:20:52;;;;;;;0.00;0.00;;;;;;;;;;5089101;28;20296;-71
2022/07/05 05:23:19;;;;;;;0.00;0.00;;;;;;;;;;5086652;28;20210;-70
2022/07/05 05:25:48;;;;;;;0.00;0.00;;;;;;;;;;5085581;28;20190;-70
2022/07/05 05:28:15;;;;;;;0.00;0.00;;;;;;;;;;5078389;28;20230;-69
2022/07/05 05:30:42;;;;;;;0.00;0.00;;;;;;;;;;5084922;28;20201;-69
2022/07/05 05:33:10;;;;;;;0.00;0.00;;;;;;;;;;5080461;28;20226;-70
2022/07/05 05:35:38;;;;;;;0.00;0.00;;;;;;;;;;5083337;28;20201;-72
2022/07/05 05:38:05;;;;;;;0.00;0.00;;;;;;;;;;5083434;28;20205;-73
2022/07/05 05:40:33;;;;;;;0.00;0.00;;;;;;;;;;5078830;28;20221;-73
2022/07/05 05:43:02;;;;;;;0.00;0.00;;;;;;;;;;5084033;28;20197;-72
2022/07/05 05:45:29;;;;;;;0.00;0.00;;;;;;;;;;5082770;28;20198;-72
2022/07/05 05:47:57;;;;;;;0.00;0.00;;;;;;;;;;5085488;28;20205;-72
2022/07/05 05:50:25;;;;;;;0.00;0.00;;;;;;;;;;5083412;28;20194;-72
2022/07/05 05:52:53;;;;;;;0.00;0.00;;;;;;;;;;5081899;28;20210;-73
2022/07/05 05:55:21;;;;;;;0.00;0.00;;;;;;;;;;5076998;28;20205;-73
2022/07/05 05:57:48;;;;;;;0.00;0.00;;;;;;;;;;5083908;28;20198;-72
2022/07/05 06:00:18;;;;;;;0.00;0.00;;;;;;;;;;5093417;28;20198;-73
2022/07/05 06:02:45;;;;;;;0.00;0.00;;;;;;;;;;5084259;28;20570;-72
2022/07/05 06:05:13;;;;;;;0.00;0.00;;;;;;;;;;5079582;28;20206;-74
2022/07/05 06:07:50;;;;;;;0.00;0.00;;;;;;;;;;5088766;28;20198;-73
2022/07/05 06:10:19;;;;;;;0.00;0.00;;;;;;;;;;5085697;28;20202;-73
2022/07/05 06:12:46;;;;;;;0.00;0.00;;;;;;;;;;5084068;28;20285;-73
2022/07/05 06:15:13;;;;;;;0.00;0.00;;;;;;;;;;5089396;28;20300;-72
2022/07/05 06:17:42;;;;;;;0.00;0.00;;;;;;;;;;5090109;28;20201;-72
2022/07/05 06:20:11;;;;;;;0.00;0.00;;;;;;;;;;5084866;28;20194;-76
2022/07/05 06:22:39;;;;;;;0.00;0.00;;;;;;;;;;5082407;28;20198;-73
2022/07/05 06:25:07;;;;;;;0.00;0.00;;;;;;;;;;5084248;28;20301;-74
2022/07/05 06:27:39;;;;;;;0.00;0.00;;;;;;;;;;5082784;28;20216;-73
2022/07/05 06:30:08;;;;;;;0.00;0.00;;;22.60;99.90;;;;;;5085660;28;20206;-70
2022/07/05 06:32:35;;;;;;;0.00;0.00;;;22.50;99.90;;;;;;5087040;28;20206;-69
2022/07/05 06:35:03;;;;;;;0.00;0.00;;;22.50;99.90;;;;;;5083626;28;20332;-70
2022/07/05 06:37:41;;;;;;;0.00;0.00;;;22.50;99.90;;;;;;5084976;28;20198;-71
2022/07/05 06:40:10;;;;;;;0.00;0.00;;;22.70;99.90;;;;;;5084912;28;20201;-72
2022/07/05 06:42:38;;;;;;;0.00;0.00;;;22.70;99.90;;;;;;5084902;28;20217;-70
2022/07/05 06:45:05;;;;;;;0.00;0.00;;;22.90;99.90;;;;;;5081700;28;20217;-70
2022/07/05 06:47:33;;;;;;;0.00;0.00;;;23.00;99.90;;;;;;5086564;28;20197;-72
2022/07/05 06:50:00;;;;;;;0.00;0.00;;;23.00;99.90;;;;;;5087934;28;20234;-70
2022/07/05 06:52:28;;;;;;;0.00;0.00;;;23.00;99.90;;;;;;5084517;28;20252;-71
2022/07/05 06:54:55;;;;;;;0.00;0.00;;;23.00;99.90;;;;;;5099738;28;20308;-70
2022/07/05 06:57:23;;;;;;;0.00;0.00;;;23.10;99.90;;;;;;5083858;28;20225;-69
2022/07/05 06:59:51;;;;;;;0.00;0.00;;;23.10;99.90;;;;;;5086035;28;20380;-70
2022/07/05 07:02:18;;;;;;;0.00;0.00;;;23.10;99.90;;;;;;5083261;28;20218;-69
2022/07/05 07:04:45;;;;;;;0.00;0.00;;;23.30;99.90;;;;;;5084999;28;20623;-70
2022/07/05 07:09:58;;;;;;;0.00;0.00;;;23.50;99.90;;;;;;5080227;28;20293;-70
2022/07/05 07:12:25;;;;;;;0.00;0.00;;;23.50;99.90;;;;;;5083362;28;20220;-70
2022/07/05 07:14:53;;;;;;;0.00;0.00;;;23.60;99.90;;;;;;5100259;28;20271;-71
2022/07/05 07:17:20;;;;;;;0.00;0.00;;;23.70;99.90;;;;;;5084233;28;20197;-72
2022/07/05 07:19:46;;;;;;;0.00;0.00;;;23.70;99.90;;;;;;5082672;28;20731;-71
2022/07/05 07:22:13;;;;;;;0.00;0.00;;;23.70;99.90;;;;;;5082931;28;20226;-71
2022/07/05 07:24:41;;;;;;;0.00;0.00;;;23.80;99.90;;;;;;5082898;28;20226;-70
2022/07/05 07:27:09;;;;;;;0.00;0.00;;;23.80;99.90;;;;;;5081320;28;20232;-71
2022/07/05 07:29:38;;;;;;;0.00;0.00;;;23.80;99.90;;;;;;5082797;28;20186;-70
2022/07/05 07:32:07;;;;;;;0.00;0.00;;;24.00;99.90;;;;;;5082905;28;20198;-69
2022/07/05 07:34:36;;;;;;;0.00;0.00;;;24.20;99.90;;;;;;5080028;28;20291;-71
2022/07/05 07:37:04;;;;;;;0.00;0.00;;;24.30;99.90;;;;;;5083199;28;20216;-71
2022/07/05 07:39:31;;;;;;;0.00;0.00;;;24.30;99.90;;;;;;5081135;28;20200;-71
2022/07/05 07:41:59;;;;;;;0.00;0.00;;;24.40;99.90;;;;;;5083543;28;20221;-69
2022/07/05 07:44:27;;;;;;;0.00;0.00;;;24.50;99.90;;;;;;5084952;28;20214;-70
2022/07/05 07:46:54;;;;;;;0.00;0.00;;;24.50;99.90;;;;;;5082682;28;20198;-70
2022/07/05 07:49:21;;;;;;;0.00;0.00;;;24.60;99.90;;;;;;5082411;28;20217;-72
2022/07/05 07:51:48;;;;;;;0.00;0.00;;;24.60;99.90;;;;;;5084293;28;20197;-71
2022/07/05 07:54:17;;;;;;;0.00;0.00;;;24.70;99.90;;;;;;5083258;28;20306;-70
2022/07/05 07:56:44;;;;;;;0.00;0.00;;;24.70;99.90;;;;;;5083444;28;20665;-70
2022/07/05 07:59:11;;;;;;;0.00;0.00;;;24.70;99.90;;;;;;5083418;28;20210;-71
2022/07/05 08:01:40;;;;;;;0.00;0.00;;;24.90;99.90;;;;;;5083144;28;20218;-72
2022/07/05 08:04:06;;;;;;;0.00;0.00;;;25.00;99.90;;;;;;5082675;28;20233;-73
2022/07/05 08:06:33;;;;;;;0.00;0.00;;;25.00;99.90;;;;;;5082956;28;20202;-70
2022/07/05 08:09:00;;;;;;;0.00;0.00;;;25.10;99.90;;;;;;5085191;28;20289;-71
2022/07/05 08:11:27;;;;;;;0.00;0.00;;;25.00;99.90;;;;;;5084838;28;20202;-70
2022/07/05 08:13:54;;;;;;;0.00;0.00;;;24.70;99.90;;;;;;5087221;28;20224;-71
2022/07/05 08:16:21;;;;;;;0.00;0.00;;;24.50;99.90;;;;;;5085778;28;20252;-71
2022/07/05 08:21:37;;;;;;;0.00;0.00;;;24.50;99.90;;;;;;5084733;28;20218;-70
2022/07/05 08:24:06;;;;;;;0.00;0.00;;;24.60;99.90;;;;;;5086496;28;20309;-73
2022/07/05 08:26:34;;;;;;;0.00;0.00;;;24.70;99.90;;;;;;5085060;28;20256;-70
2022/07/05 08:29:02;;;;;;;0.00;0.00;;;24.90;99.90;;;;;;5082186;28;20217;-70
2022/07/05 08:31:40;;;;;;;0.00;0.00;;;25.00;99.90;;;;;;5087061;28;20201;-71
2022/07/05 08:34:08;;;;;;;0.00;0.00;;;25.10;99.90;;;;;;5082319;28;20234;-71
2022/07/05 08:36:35;;;;;;;0.00;0.00;;;25.30;99.90;;;;;;5086242;28;20783;-71
2022/07/05 08:39:03;;;;;;;0.00;0.00;;;25.30;99.90;;;;;;5084106;28;20198;-70
2022/07/05 08:41:32;;;;;;;0.00;0.00;;;25.50;99.90;;;;;;5085201;28;20317;-71
2022/07/05 08:44:00;;;;;;;0.00;0.00;;;25.40;99.90;;;;;;5086471;28;20220;-69
2022/07/05 08:46:31;;;;;;;0.00;0.00;;;25.20;99.90;;;;;;5087313;28;20197;-72
2022/07/05 08:49:00;;;;;;;0.00;0.00;;;25.10;99.90;;;;;;5082691;28;20198;-70
2022/07/05 08:51:29;;;;;;;0.00;0.00;;;25.20;99.90;;;;;;5084351;28;20236;-70
2022/07/05 08:53:57;;;;;;;0.00;0.00;;;25.30;99.90;;;;;;5082050;28;20210;-70
2022/07/05 08:56:24;;;;;;;0.00;0.00;;;25.30;99.90;;;;;;5084823;28;20202;-70
2022/07/05 08:58:51;;;;;;;0.00;0.00;;;25.40;99.90;;;;;;5082705;28;20568;-70
2022/07/05 09:01:18;;;;;;;0.00;0.00;;;25.30;99.90;;;;;;5085293;28;20220;-70
2022/07/05 09:03:48;;;;;;;0.00;0.00;;;25.40;99.90;;;;;;5088832;28;20217;-72
2022/07/05 09:06:18;;;;;;;0.00;0.00;;;25.20;99.90;;;;;;5084099;28;20201;-69
2022/07/05 09:08:49;;;;;;;0.00;0.00;;;25.30;99.90;;;;;;5085491;28;20208;-70
2022/07/05 09:11:17;;;;;;;0.00;0.00;;;25.40;99.90;;;;;;5086393;28;20209;-73
2022/07/05 09:13:49;;;;;;;0.00;0.00;;;25.80;99.90;;;;;;5085532;28;20214;-71
2022/07/05 09:16:16;;;;;;;0.00;0.00;;;26.00;99.90;;;;;;5083930;28;20216;-70
2022/07/05 09:18:45;;;;;;;0.00;0.00;;;26.30;99.90;;;;;;5085049;28;20233;-70
2022/07/05 09:21:13;;;;;;;0.00;0.00;;;26.40;99.90;;;;;;5082694;28;20274;-73
2022/07/05 09:23:41;;;;;;;0.00;0.00;;;26.30;99.90;;;;;;5085190;28;20220;-70
2022/07/05 09:26:09;;;;;;;0.00;0.00;;;26.20;99.90;;;;;;5082679;28;20205;-71
2022/07/05 09:28:37;;;;;;;0.00;0.00;;;26.20;99.90;;;;;;5085134;28;20206;-70
2022/07/05 09:31:04;;;;;;;0.00;0.00;;;26.40;99.90;;;;;;5084646;28;20814;-70
2022/07/05 09:33:31;;;;;;;0.00;0.00;;;26.60;99.90;;;;;;5084431;28;20260;-70
2022/07/05 09:35:58;;;;;;;0.00;0.00;;;26.80;99.90;;;;;;5086155;28;20202;-70
2022/07/05 09:38:26;;;;;;;0.00;0.00;;;26.80;99.90;;;;;;5085533;28;20186;-70
2022/07/05 09:40:55;;;;;;;0.00;0.00;;;26.70;99.90;;;;;;5084873;28;20226;-71
2022/07/05 09:43:24;;;;;;;0.00;0.00;;;26.50;99.90;;;;;;5083958;28;20236;-71
2022/07/05 09:45:58;;;;;;;0.00;0.00;;;26.20;99.90;;;;;;5084486;28;20198;-71
2022/07/05 09:48:27;;;;;;;0.00;0.00;;;26.10;99.90;;;;;;5083780;28;20209;-72
2022/07/05 09:51:05;;;;;;;0.00;0.00;;;25.90;99.90;;;;;;5086376;28;20200;-70
2022/07/05 09:53:46;;;;;;;0.00;0.00;;;26.10;99.90;;;;;;5095044;28;20210;-70
2022/07/05 09:56:13;;;;;;;0.00;0.00;;;26.30;99.90;;;;;;5083071;28;20282;-71
2022/07/05 09:58:42;;;;;;;0.00;0.00;;;26.30;99.90;;;;;;5085867;28;20212;-73
2022/07/05 10:01:24;;;;;;;0.00;0.00;;;26.20;99.90;;;;;;5084028;28;20263;-69
2022/07/05 10:03:55;;;;;;;0.00;0.00;;;26.20;99.90;;;;;;5080623;28;20238;-69
2022/07/05 10:06:23;;;;;;;0.00;0.00;;;26.40;99.90;;;;;;5082194;28;20202;-70
2022/07/05 10:08:51;;;;;;;0.00;0.00;;;26.50;99.90;;;;;;5082810;28;20647;-71
2022/07/05 10:11:19;;;;;;;0.00;0.00;;;26.60;99.90;;;;;;5083946;28;20235;-69
2022/07/05 10:13:49;;;;;;;0.00;0.00;;;26.80;99.90;;;;;;5084319;28;20213;-69
2022/07/05 10:16:17;;;;;;;0.00;0.00;;;26.90;99.90;;;;;;5080384;28;20291;-69
2022/07/05 10:18:46;;;;;;;0.00;0.00;;;27.20;99.90;;;;;;5084276;28;20289;-69
2022/07/05 10:21:15;;;;;;;0.00;0.00;;;27.30;99.90;;;;;;5084543;28;20244;-70
2022/07/05 10:23:45;;;;;;;0.00;0.00;;;27.40;99.90;;;;;;5085505;28;20220;-69
2022/07/05 10:26:13;;;;;;;0.00;0.00;;;27.50;99.90;;;;;;5082140;28;20229;-73
2022/07/05 10:28:41;;;;;;;0.00;0.00;;;27.50;99.90;;;;;;5083126;28;20202;-72
2022/07/05 10:31:10;;;;;;;0.00;0.00;;;27.60;99.90;;;;;;5081011;28;20212;-71
2022/07/05 10:33:38;;;;;;;0.00;0.00;;;27.60;99.90;;;;;;5083610;28;20312;-70
2022/07/05 10:36:06;;;;;;;0.00;0.00;;;27.70;99.90;;;;;;5085116;28;20200;-71
2022/07/05 10:38:36;;;;;;;0.00;0.00;;;27.80;99.90;;;;;;5081002;28;20206;-72
2022/07/05 10:41:07;;;;;;;0.00;0.00;;;28.10;99.90;;;;;;5082474;28;20212;-72
2022/07/05 10:43:35;;;;;;;0.00;0.00;;;27.90;99.90;;;;;;5084325;28;20257;-71
2022/07/05 10:46:06;;;;;;;0.00;0.00;;;27.50;99.90;;;;;;5083548;28;20202;-71
2022/07/05 10:48:35;;;;;;;0.00;0.00;;;27.20;99.90;;;;;;5083329;28;20205;-70
2022/07/05 10:51:15;;;;;;;0.00;0.00;;;26.80;99.90;;;;;;5085341;28;20198;-72
2022/07/05 10:54:03;;;;;;;0.00;0.00;;;26.30;99.90;;;;;;5082837;28;20209;-71
2022/07/05 10:56:30;;;;;;;0.00;0.00;;;26.20;99.90;;;;;;5082586;28;20205;-72
2022/07/05 10:59:09;;;;;;;0.00;0.00;;;26.50;99.90;;;;;;5083809;28;20655;-70
2022/07/05 11:01:41;;;;;;;0.00;0.00;;;26.80;99.90;;;;;;5084371;28;20258;-70
2022/07/05 11:04:32;;;;;;;0.00;0.00;;;27.20;99.90;;;;;;5082961;28;20222;-70
2022/07/05 11:06:59;;;;;;;0.00;0.00;;;27.50;99.90;;;;;;5084756;28;20198;-71
2022/07/05 11:09:28;;;;;;;0.00;0.00;;;27.70;99.90;;;;;;5082934;28;20198;-71
2022/07/05 11:12:13;;;;;;;0.00;0.00;;;27.40;99.90;;;;;;5075480;28;20197;-70
2022/07/05 11:14:47;;;;;;;0.00;0.00;;;27.10;99.90;;;;;;5099379;28;20222;-72
2022/07/05 11:17:25;;;;;;;0.00;0.00;;;26.90;99.90;;;;;;5083028;28;20194;-73
2022/07/05 11:20:12;;;;;;;0.00;0.00;;;26.90;99.90;;;;;;5080327;28;20193;-73
2022/07/05 11:22:41;;;;;;;0.00;0.00;;;26.90;99.90;;;;;;5082568;28;20312;-74
2022/07/05 11:25:11;;;;;;;0.00;0.00;;;26.90;99.90;;;;;;5084538;28;20206;-72
2022/07/05 11:28:06;;;;;;;0.00;0.00;;;26.90;99.90;;;;;;5083296;28;20255;-72
2022/07/05 11:30:52;;;;;;;0.00;0.00;;;26.90;99.90;;;;;;5082264;28;20237;-72
2022/07/05 11:33:30;;;;;;;0.00;0.00;;;27.10;99.90;;;;;;5082579;28;20230;-72
2022/07/05 11:35:58;;;;;;;0.00;0.00;;;27.30;99.90;;;;;;5085962;28;20205;-71
2022/07/05 11:38:25;;;;;;;0.00;0.00;;;27.40;99.90;;;;;;5090476;28;20198;-71
2022/07/05 11:40:53;;;;;;;0.00;0.00;;;27.50;99.90;;;;;;5089498;28;20600;-72
2022/07/05 11:43:28;;;;;;;0.00;0.00;;;27.70;99.90;;;;;;5088815;28;20230;-71
2022/07/05 11:45:59;;;;;;;0.00;0.00;;;27.60;99.90;;;;;;5089157;28;20193;-72
2022/07/05 11:48:28;;;;;;;0.00;0.00;;;27.40;99.90;;;;;;5094522;28;20198;-72
2022/07/05 11:50:55;;;;;;;0.00;0.00;;;27.40;99.90;;;;;;5090660;28;20224;-72
2022/07/05 11:53:27;;;;;;;0.00;0.00;;;27.10;99.90;;;;;;5086072;28;20228;-72
2022/07/05 11:55:55;;;;;;;0.00;0.00;;;27.00;99.90;;;;;;5089507;28;20194;-71
2022/07/05 11:58:23;;;;;;;0.00;0.00;;;26.90;99.90;;;;;;5086136;28;20190;-71
2022/07/05 12:00:56;;;;;;;0.00;0.00;;;26.90;99.90;;;;;;5087496;28;20198;-71
2022/07/05 12:03:23;;;;;;;0.00;0.00;;;27.20;99.90;;;;;;5089242;28;20224;-71
2022/07/05 12:05:50;;;;;;;0.00;0.00;;;27.30;99.90;;;;;;5081504;28;20205;-70
2022/07/05 12:08:21;;;;;;;0.00;0.00;;;27.50;99.90;;;;;;5086182;28;20207;-72
2022/07/05 12:13:43;;;;;;;0.00;0.00;;;27.40;99.90;;;;;;5092881;28;20218;-73
2022/07/05 12:16:13;;;;;;;0.00;0.00;;;27.10;99.90;;;;;;5095877;28;20227;-71
2022/07/05 12:18:51;;;;;;;0.00;0.00;;;26.70;99.90;;;;;;5094452;28;20205;-72
2022/07/05 12:21:20;;;;;;;0.00;0.00;;;26.40;99.90;;;;;;5075203;28;20193;-73
2022/07/05 12:23:48;;;;;;;0.00;0.00;;;26.30;99.90;;;;;;5094333;28;20214;-71
2022/07/05 12:26:16;;;;;;;0.00;0.00;;;26.10;99.90;;;;;;5094486;28;20227;-71
2022/07/05 12:28:44;;;;;;;0.00;0.00;;;26.20;99.90;;;;;;5087820;28;20202;-72
2022/07/05 12:31:23;;;;;;;0.00;0.00;;;26.10;99.90;;;;;;5087279;28;20193;-71
2022/07/05 12:33:51;;;;;;;0.00;0.00;;;26.20;99.90;;;;;;5085473;28;20249;-71
2022/07/05 12:36:20;;;;;;;0.00;0.00;;;26.40;99.90;;;;;;5095867;28;20227;-72
2022/07/05 12:38:47;;;;;;;0.00;0.00;;;26.50;99.90;;;;;;5085912;28;20198;-73
2022/07/05 12:41:22;;;;;;;0.00;0.00;;;26.40;99.90;;;;;;5083633;28;20225;-71
2022/07/05 12:43:51;;;;;;;0.00;0.00;;;26.20;99.90;;;;;;5090259;28;20269;-70
2022/07/05 12:46:18;;;;;;;0.00;0.00;;;26.20;99.90;;;;;;5090589;28;20213;-70
2022/07/05 12:48:53;;;;;;;0.00;0.00;;;26.30;99.90;;;;;;5085578;28;20197;-71
2022/07/05 12:51:33;;;;;;;0.00;0.00;;;26.40;99.90;;;;;;5086933;28;20232;-70
2022/07/05 12:59:34;;;;;;;0.00;0.00;;;26.40;99.90;;;;;;5082302;28;20186;-71
2022/07/05 13:02:01;;;;;;;0.00;0.00;;;26.30;99.90;;;;;;5088664;28;20210;-71
2022/07/05 13:04:30;;;;;;;0.00;0.00;;;26.20;99.90;;;;;;5093980;28;20237;-70
2022/07/05 13:06:58;;;;;;;0.00;0.00;;;26.30;99.90;;;;;;5094412;28;20198;-70
2022/07/05 13:09:34;;;;;;;0.00;0.00;;;26.40;99.90;;;;;;5083532;28;20200;-72
2022/07/05 13:12:10;;;;;;;0.00;0.00;;;26.40;99.90;;;;;;5081330;28;20282;-72
2022/07/05 13:14:38;;;;;;;0.00;0.00;;;26.50;99.90;;;;;;5085945;28;20231;-70
2022/07/05 13:17:05;;;;;;;0.00;0.00;;;26.60;99.90;;;;;;5080598;28;20202;-70
2022/07/05 13:19:34;;;;;;;0.00;0.00;;;26.60;99.90;;;;;;5084742;28;20202;-70
2022/07/05 13:22:01;;;;;;;0.00;0.00;;;26.80;99.90;;;;;;5091636;28;20600;-73
2022/07/05 13:24:28;;;;;;;0.00;0.00;;;26.80;99.90;;;;;;5085749;28;20244;-73
2022/07/05 13:26:56;;;;;;;0.00;0.00;;;26.80;99.90;;;;;;5085323;28;20208;-71
2022/07/05 13:29:23;;;;;;;0.00;0.00;;;26.80;99.90;;;;;;5086759;28;20285;-72
2022/07/05 13:31:50;;;;;;;0.00;0.00;;;26.80;99.90;;;;;;5084428;28;20221;-70
2022/07/05 13:34:17;;;;;;;0.00;0.00;;;26.80;99.90;;;;;;5086070;28;20240;-71
2022/07/05 13:36:46;;;;;;;0.00;0.00;;;26.80;99.90;;;;;;5083999;28;20202;-72
2022/07/05 13:39:14;;;;;;;0.00;0.00;;;26.80;99.90;;;;;;5088597;28;20205;-72
2022/07/05 13:41:41;;;;;;;0.00;0.00;;;26.70;99.90;;;;;;5083418;28;20200;-72
2022/07/05 13:44:08;;;;;;;0.00;0.00;;;26.60;99.90;;;;;;5091755;28;20229;-72
2022/07/05 13:46:36;;;;;;;0.00;0.00;;;26.50;99.90;;;;;;5087037;28;20247;-73
2022/07/05 13:49:03;;;;;;;0.00;0.00;;;26.50;99.90;;;;;;5086552;28;20241;-71
2022/07/05 13:51:29;;;;;;;0.00;0.00;;;26.40;99.90;;;;;;5086044;28;20198;-71
2022/07/05 13:53:58;;;;;;;0.00;0.00;;;26.30;99.90;;;;;;5079801;28;20216;-71